sensor_id;sensor_type;location;lat;lon;timestamp;temperature;humidity
48488;DHT22;34289;48.572;13.378;2023-04-24T00:01:10;12.70;99.90
48488;DHT22;34289;48.572;13.378;2023-04-24T00:03:39;12.70;99.90
48488;DHT22;34289;48.572;13.378;2023-04-24T00:06:05;12.60;99.90
48488;DHT22;34289;48.572;13.378;2023-04-24T00:08:33;12.60;99.90
48488;DHT22;34289;48.572;13.378;2023-04-24T00:11:00;12.60;99.90
48488;DHT22;34289;48.572;13.378;2023-04-24T00:13:25;12.60;99.90
48488;DHT22;34289;48.572;13.378;2023-04-24T00:15:51;12.60;99.90
48488;DHT22;34289;48.572;13.378;2023-04-24T00:18:17;12.50;99.90
48488;DHT22;34289;48.572;13.378;2023-04-24T00:20:42;12.50;99.90
48488;DHT22;34289;48.572;13.378;2023-04-24T00:23:09;12.50;99.90
48488;DHT22;34289;48.572;13.378;2023-04-24T00:25:34;12.40;99.90
48488;DHT22;34289;48.572;13.378;2023-04-24T00:28:00;12.40;99.90
48488;DHT22;34289;48.572;13.378;2023-04-24T00:30:26;12.20;99.90
48488;DHT22;34289;48.572;13.378;2023-04-24T00:32:51;12.20;99.90
48488;DHT22;34289;48.572;13.378;2023-04-24T00:35:17;12.30;99.90
48488;DHT22;34289;48.572;13.378;2023-04-24T00:37:45;12.00;99.90
48488;DHT22;34289;48.572;13.378;2023-04-24T00:40:11;12.10;99.90
48488;DHT22;34289;48.572;13.378;2023-04-24T00:42:36;12.00;99.90
48488;DHT22;34289;48.572;13.378;2023-04-24T00:45:02;11.90;99.90
48488;DHT22;34289;48.572;13.378;2023-04-24T00:47:28;12.00;99.90
48488;DHT22;34289;48.572;13.378;2023-04-24T00:49:55;12.00;99.90
48488;DHT22;34289;48.572;13.378;2023-04-24T00:52:21;12.00;99.90
48488;DHT22;34289;48.572;13.378;2023-04-24T00:54:49;11.80;99.90
48488;DHT22;34289;48.572;13.378;2023-04-24T00:57:15;11.90;99.90
48488;DHT22;34289;48.572;13.378;2023-04-24T00:59:42;11.90;99.90
48488;DHT22;34289;48.572;13.378;2023-04-24T01:02:09;12.00;99.90
48488;DHT22;34289;48.572;13.378;2023-04-24T01:04:36;11.90;99.90
48488;DHT22;34289;48.572;13.378;2023-04-24T01:07:02;12.10;99.90
48488;DHT22;34289;48.572;13.378;2023-04-24T01:09:28;11.90;99.90
48488;DHT22;34289;48.572;13.378;2023-04-24T01:11:54;11.90;99.90
48488;DHT22;34289;48.572;13.378;2023-04-24T01:14:20;12.00;99.90
48488;DHT22;34289;48.572;13.378;2023-04-24T01:16:45;11.90;99.90
48488;DHT22;34289;48.572;13.378;2023-04-24T01:19:11;11.90;99.90
48488;DHT22;34289;48.572;13.378;2023-04-24T01:21:38;11.90;99.90
48488;DHT22;34289;48.572;13.378;2023-04-24T01:24:05;11.90;99.90
48488;DHT22;34289;48.572;13.378;2023-04-24T01:26:31;11.90;99.90
48488;DHT22;34289;48.572;13.378;2023-04-24T01:28:57;11.90;99.90
48488;DHT22;34289;48.572;13.378;2023-04-24T01:31:23;11.90;99.90
48488;DHT22;34289;48.572;13.378;2023-04-24T01:33:49;11.90;99.90
48488;DHT22;34289;48.572;13.378;2023-04-24T01:36:16;11.80;99.90
48488;DHT22;34289;48.572;13.378;2023-04-24T01:38:42;11.80;99.90
48488;DHT22;34289;48.572;13.378;2023-04-24T01:41:08;11.80;99.90
48488;DHT22;34289;48.572;13.378;2023-04-24T01:43:33;11.90;99.90
48488;DHT22;34289;48.572;13.378;2023-04-24T01:45:59;11.80;99.90
48488;DHT22;34289;48.572;13.378;2023-04-24T01:48:25;11.80;99.90
48488;DHT22;34289;48.572;13.378;2023-04-24T01:50:50;11.80;99.90
48488;DHT22;34289;48.572;13.378;2023-04-24T01:53:16;11.80;99.90
48488;DHT22;34289;48.572;13.378;2023-04-24T01:55:42;12.40;99.90
48488;DHT22;34289;48.572;13.378;2023-04-24T01:58:07;11.80;99.90
48488;DHT22;34289;48.572;13.378;2023-04-24T02:00:33;11.80;99.90
48488;DHT22;34289;48.572;13.378;2023-04-24T02:02:59;11.80;99.90
48488;DHT22;34289;48.572;13.378;2023-04-24T02:05:27;11.80;99.90
48488;DHT22;34289;48.572;13.378;2023-04-24T02:07:52;12.30;99.90
48488;DHT22;34289;48.572;13.378;2023-04-24T02:10:18;11.80;99.90
48488;DHT22;34289;48.572;13.378;2023-04-24T02:12:44;11.90;99.90
48488;DHT22;34289;48.572;13.378;2023-04-24T02:15:10;11.80;99.90
48488;DHT22;34289;48.572;13.378;2023-04-24T02:17:35;11.70;99.90
48488;DHT22;34289;48.572;13.378;2023-04-24T02:20:01;11.70;99.90
48488;DHT22;34289;48.572;13.378;2023-04-24T02:22:27;11.60;99.90
48488;DHT22;34289;48.572;13.378;2023-04-24T02:24:53;11.60;99.90
48488;DHT22;34289;48.572;13.378;2023-04-24T02:27:18;11.50;99.90
48488;DHT22;34289;48.572;13.378;2023-04-24T02:29:44;11.60;99.90
48488;DHT22;34289;48.572;13.378;2023-04-24T02:32:10;11.50;99.90
48488;DHT22;34289;48.572;13.378;2023-04-24T02:34:37;11.60;99.90
48488;DHT22;34289;48.572;13.378;2023-04-24T02:37:03;11.70;99.90
48488;DHT22;34289;48.572;13.378;2023-04-24T02:39:29;11.60;99.90
48488;DHT22;34289;48.572;13.378;2023-04-24T02:41:54;11.50;99.90
48488;DHT22;34289;48.572;13.378;2023-04-24T02:44:20;11.50;99.90
48488;DHT22;34289;48.572;13.378;2023-04-24T02:46:47;11.40;99.90
48488;DHT22;34289;48.572;13.378;2023-04-24T02:49:12;11.40;99.90
48488;DHT22;34289;48.572;13.378;2023-04-24T02:51:38;11.40;99.90
48488;DHT22;34289;48.572;13.378;2023-04-24T02:54:09;11.50;99.90
48488;DHT22;34289;48.572;13.378;2023-04-24T02:56:35;11.50;99.90
48488;DHT22;34289;48.572;13.378;2023-04-24T02:59:01;11.50;99.90
48488;DHT22;34289;48.572;13.378;2023-04-24T03:01:26;11.50;99.90
48488;DHT22;34289;48.572;13.378;2023-04-24T03:03:52;11.50;99.90
48488;DHT22;34289;48.572;13.378;2023-04-24T03:06:17;11.40;99.90
48488;DHT22;34289;48.572;13.378;2023-04-24T03:08:43;11.40;99.90
48488;DHT22;34289;48.572;13.378;2023-04-24T03:11:08;11.40;99.90
48488;DHT22;34289;48.572;13.378;2023-04-24T03:13:34;11.50;99.90
48488;DHT22;34289;48.572;13.378;2023-04-24T03:16:00;11.40;99.90
48488;DHT22;34289;48.572;13.378;2023-04-24T03:18:25;11.50;99.90
48488;DHT22;34289;48.572;13.378;2023-04-24T03:20:51;11.40;99.90
48488;DHT22;34289;48.572;13.378;2023-04-24T03:23:17;11.30;99.90
48488;DHT22;34289;48.572;13.378;2023-04-24T03:25:42;11.40;99.90
48488;DHT22;34289;48.572;13.378;2023-04-24T03:28:08;11.50;99.90
48488;DHT22;34289;48.572;13.378;2023-04-24T03:30:34;11.50;99.90
48488;DHT22;34289;48.572;13.378;2023-04-24T03:33:00;11.40;99.90
48488;DHT22;34289;48.572;13.378;2023-04-24T03:35:25;11.50;99.90
48488;DHT22;34289;48.572;13.378;2023-04-24T03:37:51;11.40;99.90
48488;DHT22;34289;48.572;13.378;2023-04-24T03:40:17;11.40;99.90
48488;DHT22;34289;48.572;13.378;2023-04-24T03:42:42;11.40;99.90
48488;DHT22;34289;48.572;13.378;2023-04-24T03:45:08;11.40;99.90
48488;DHT22;34289;48.572;13.378;2023-04-24T03:47:34;11.30;99.90
48488;DHT22;34289;48.572;13.378;2023-04-24T03:50:00;11.30;99.90
48488;DHT22;34289;48.572;13.378;2023-04-24T03:52:26;11.30;99.90
48488;DHT22;34289;48.572;13.378;2023-04-24T03:54:51;11.30;99.90
48488;DHT22;34289;48.572;13.378;2023-04-24T03:57:17;11.30;99.90
48488;DHT22;34289;48.572;13.378;2023-04-24T03:59:42;11.30;99.90
48488;DHT22;34289;48.572;13.378;2023-04-24T04:02:08;11.20;99.90
48488;DHT22;34289;48.572;13.378;2023-04-24T04:04:34;11.10;99.90
48488;DHT22;34289;48.572;13.378;2023-04-24T04:06:59;11.20;99.90
48488;DHT22;34289;48.572;13.378;2023-04-24T04:09:26;11.30;99.90
48488;DHT22;34289;48.572;13.378;2023-04-24T04:11:52;11.40;99.90
48488;DHT22;34289;48.572;13.378;2023-04-24T04:14:18;11.30;99.90
48488;DHT22;34289;48.572;13.378;2023-04-24T04:16:44;11.20;99.90
48488;DHT22;34289;48.572;13.378;2023-04-24T04:19:10;11.20;99.90
48488;DHT22;34289;48.572;13.378;2023-04-24T04:21:35;11.20;99.90
48488;DHT22;34289;48.572;13.378;2023-04-24T04:24:01;11.20;99.90
48488;DHT22;34289;48.572;13.378;2023-04-24T04:26:26;11.30;99.90
48488;DHT22;34289;48.572;13.378;2023-04-24T04:28:52;11.20;99.90
48488;DHT22;34289;48.572;13.378;2023-04-24T04:31:19;11.20;99.90
48488;DHT22;34289;48.572;13.378;2023-04-24T04:33:45;11.40;99.90
48488;DHT22;34289;48.572;13.378;2023-04-24T04:36:14;11.30;99.90
48488;DHT22;34289;48.572;13.378;2023-04-24T04:38:39;11.20;99.90
48488;DHT22;34289;48.572;13.378;2023-04-24T04:41:05;11.10;99.90
48488;DHT22;34289;48.572;13.378;2023-04-24T04:43:32;11.10;99.90
48488;DHT22;34289;48.572;13.378;2023-04-24T04:45:59;11.10;99.90
48488;DHT22;34289;48.572;13.378;2023-04-24T04:48:26;11.00;99.90
48488;DHT22;34289;48.572;13.378;2023-04-24T04:50:52;11.00;99.90
48488;DHT22;34289;48.572;13.378;2023-04-24T04:53:18;11.00;99.90
48488;DHT22;34289;48.572;13.378;2023-04-24T04:55:43;11.00;99.90
48488;DHT22;34289;48.572;13.378;2023-04-24T04:58:09;11.10;99.90
48488;DHT22;34289;48.572;13.378;2023-04-24T05:00:35;11.10;99.90
48488;DHT22;34289;48.572;13.378;2023-04-24T05:03:03;11.10;99.90
48488;DHT22;34289;48.572;13.378;2023-04-24T05:05:28;11.00;99.90
48488;DHT22;34289;48.572;13.378;2023-04-24T05:07:54;11.20;99.90
48488;DHT22;34289;48.572;13.378;2023-04-24T05:10:20;11.00;99.90
48488;DHT22;34289;48.572;13.378;2023-04-24T05:12:46;11.00;99.90
48488;DHT22;34289;48.572;13.378;2023-04-24T05:15:11;11.00;99.90
48488;DHT22;34289;48.572;13.378;2023-04-24T05:17:37;11.00;99.90
48488;DHT22;34289;48.572;13.378;2023-04-24T05:20:05;11.00;99.90
48488;DHT22;34289;48.572;13.378;2023-04-24T05:22:31;11.10;99.90
48488;DHT22;34289;48.572;13.378;2023-04-24T05:24:57;11.00;99.90
48488;DHT22;34289;48.572;13.378;2023-04-24T05:27:23;11.00;99.90
48488;DHT22;34289;48.572;13.378;2023-04-24T05:29:49;11.10;99.90
48488;DHT22;34289;48.572;13.378;2023-04-24T05:32:15;11.10;99.90
48488;DHT22;34289;48.572;13.378;2023-04-24T05:34:40;11.10;99.90
48488;DHT22;34289;48.572;13.378;2023-04-24T05:37:06;11.10;99.90
48488;DHT22;34289;48.572;13.378;2023-04-24T05:39:34;11.10;99.90
48488;DHT22;34289;48.572;13.378;2023-04-24T05:42:01;11.20;99.90
48488;DHT22;34289;48.572;13.378;2023-04-24T05:44:27;11.20;99.90
48488;DHT22;34289;48.572;13.378;2023-04-24T05:46:52;11.30;99.90
48488;DHT22;34289;48.572;13.378;2023-04-24T05:49:18;11.30;99.90
48488;DHT22;34289;48.572;13.378;2023-04-24T05:51:44;11.30;99.90
48488;DHT22;34289;48.572;13.378;2023-04-24T05:54:10;11.40;99.90
48488;DHT22;34289;48.572;13.378;2023-04-24T05:56:37;11.50;99.90
48488;DHT22;34289;48.572;13.378;2023-04-24T05:59:03;11.40;99.90
48488;DHT22;34289;48.572;13.378;2023-04-24T06:01:29;11.50;99.90
48488;DHT22;34289;48.572;13.378;2023-04-24T06:03:55;11.30;99.90
48488;DHT22;34289;48.572;13.378;2023-04-24T06:06:20;11.40;99.90
48488;DHT22;34289;48.572;13.378;2023-04-24T06:08:46;11.40;99.90
48488;DHT22;34289;48.572;13.378;2023-04-24T06:11:11;11.50;99.90
48488;DHT22;34289;48.572;13.378;2023-04-24T06:13:37;11.50;99.90
48488;DHT22;34289;48.572;13.378;2023-04-24T06:16:03;11.50;99.90
48488;DHT22;34289;48.572;13.378;2023-04-24T06:18:28;11.60;99.90
48488;DHT22;34289;48.572;13.378;2023-04-24T06:20:54;11.60;99.90
48488;DHT22;34289;48.572;13.378;2023-04-24T06:23:20;11.50;99.90
48488;DHT22;34289;48.572;13.378;2023-04-24T06:25:46;11.50;99.90
48488;DHT22;34289;48.572;13.378;2023-04-24T06:28:12;11.50;99.90
48488;DHT22;34289;48.572;13.378;2023-04-24T06:30:38;11.50;99.90
48488;DHT22;34289;48.572;13.378;2023-04-24T06:33:03;11.50;99.90
48488;DHT22;34289;48.572;13.378;2023-04-24T06:35:29;11.70;99.90
48488;DHT22;34289;48.572;13.378;2023-04-24T06:37:55;11.60;99.90
48488;DHT22;34289;48.572;13.378;2023-04-24T06:40:21;11.60;99.90
48488;DHT22;34289;48.572;13.378;2023-04-24T06:42:47;11.60;99.90
48488;DHT22;34289;48.572;13.378;2023-04-24T06:45:13;11.50;99.90
48488;DHT22;34289;48.572;13.378;2023-04-24T06:47:38;11.50;99.90
48488;DHT22;34289;48.572;13.378;2023-04-24T06:50:04;11.50;99.90
48488;DHT22;34289;48.572;13.378;2023-04-24T06:52:30;11.50;99.90
48488;DHT22;34289;48.572;13.378;2023-04-24T06:55:05;11.50;99.90
48488;DHT22;34289;48.572;13.378;2023-04-24T06:57:31;11.40;99.90
48488;DHT22;34289;48.572;13.378;2023-04-24T06:59:56;11.40;99.90
48488;DHT22;34289;48.572;13.378;2023-04-24T07:02:22;11.50;99.90
48488;DHT22;34289;48.572;13.378;2023-04-24T07:04:48;11.50;99.90
48488;DHT22;34289;48.572;13.378;2023-04-24T07:07:14;11.40;99.90
48488;DHT22;34289;48.572;13.378;2023-04-24T07:09:40;11.50;99.90
48488;DHT22;34289;48.572;13.378;2023-04-24T07:12:09;11.60;99.90
48488;DHT22;34289;48.572;13.378;2023-04-24T07:14:39;11.70;99.90
48488;DHT22;34289;48.572;13.378;2023-04-24T07:17:05;11.80;99.90
48488;DHT22;34289;48.572;13.378;2023-04-24T07:19:33;12.00;99.90
48488;DHT22;34289;48.572;13.378;2023-04-24T07:21:58;11.70;99.90
48488;DHT22;34289;48.572;13.378;2023-04-24T07:24:25;11.70;99.90
48488;DHT22;34289;48.572;13.378;2023-04-24T07:26:51;11.60;99.90
48488;DHT22;34289;48.572;13.378;2023-04-24T07:29:17;11.60;99.90
48488;DHT22;34289;48.572;13.378;2023-04-24T07:31:43;11.70;99.90
48488;DHT22;34289;48.572;13.378;2023-04-24T07:34:09;11.70;99.90
48488;DHT22;34289;48.572;13.378;2023-04-24T07:36:35;11.80;99.90
48488;DHT22;34289;48.572;13.378;2023-04-24T07:39:01;11.60;99.90
48488;DHT22;34289;48.572;13.378;2023-04-24T07:41:26;12.00;99.90
48488;DHT22;34289;48.572;13.378;2023-04-24T07:43:53;11.80;99.90
48488;DHT22;34289;48.572;13.378;2023-04-24T07:46:19;11.70;99.90
48488;DHT22;34289;48.572;13.378;2023-04-24T07:48:45;11.70;99.90
48488;DHT22;34289;48.572;13.378;2023-04-24T07:51:14;11.70;99.90
48488;DHT22;34289;48.572;13.378;2023-04-24T07:53:39;11.80;99.90
48488;DHT22;34289;48.572;13.378;2023-04-24T07:56:05;11.90;99.90
48488;DHT22;34289;48.572;13.378;2023-04-24T07:58:31;11.90;99.90
48488;DHT22;34289;48.572;13.378;2023-04-24T08:00:59;12.00;99.90
48488;DHT22;34289;48.572;13.378;2023-04-24T08:03:25;12.00;99.90
48488;DHT22;34289;48.572;13.378;2023-04-24T08:05:50;12.10;99.90
48488;DHT22;34289;48.572;13.378;2023-04-24T08:08:16;12.50;99.90
48488;DHT22;34289;48.572;13.378;2023-04-24T08:10:42;12.20;99.90
48488;DHT22;34289;48.572;13.378;2023-04-24T08:13:08;12.20;99.90
48488;DHT22;34289;48.572;13.378;2023-04-24T08:15:34;12.20;99.90
48488;DHT22;34289;48.572;13.378;2023-04-24T08:17:59;12.10;99.90
48488;DHT22;34289;48.572;13.378;2023-04-24T08:20:25;12.10;99.90
48488;DHT22;34289;48.572;13.378;2023-04-24T08:22:51;12.20;99.90
48488;DHT22;34289;48.572;13.378;2023-04-24T08:25:16;12.30;99.90
48488;DHT22;34289;48.572;13.378;2023-04-24T08:27:43;12.20;99.90
48488;DHT22;34289;48.572;13.378;2023-04-24T08:30:09;12.30;99.90
48488;DHT22;34289;48.572;13.378;2023-04-24T08:32:36;12.50;99.90
48488;DHT22;34289;48.572;13.378;2023-04-24T08:35:02;12.70;99.90
48488;DHT22;34289;48.572;13.378;2023-04-24T08:37:29;12.90;99.90
48488;DHT22;34289;48.572;13.378;2023-04-24T08:39:55;13.00;99.90
48488;DHT22;34289;48.572;13.378;2023-04-24T08:42:21;13.10;99.90
48488;DHT22;34289;48.572;13.378;2023-04-24T08:44:48;13.10;99.90
48488;DHT22;34289;48.572;13.378;2023-04-24T08:47:15;13.00;99.90
48488;DHT22;34289;48.572;13.378;2023-04-24T08:49:41;13.00;99.90
48488;DHT22;34289;48.572;13.378;2023-04-24T08:52:08;13.00;99.90
48488;DHT22;34289;48.572;13.378;2023-04-24T08:54:36;13.30;99.90
48488;DHT22;34289;48.572;13.378;2023-04-24T08:57:03;13.00;99.90
48488;DHT22;34289;48.572;13.378;2023-04-24T08:59:30;13.10;99.90
48488;DHT22;34289;48.572;13.378;2023-04-24T09:01:57;13.00;99.90
48488;DHT22;34289;48.572;13.378;2023-04-24T09:04:24;13.00;99.90
48488;DHT22;34289;48.572;13.378;2023-04-24T09:06:59;12.90;99.90
48488;DHT22;34289;48.572;13.378;2023-04-24T09:09:25;12.80;99.90
48488;DHT22;34289;48.572;13.378;2023-04-24T09:11:52;12.90;99.90
48488;DHT22;34289;48.572;13.378;2023-04-24T09:14:21;12.90;99.90
48488;DHT22;34289;48.572;13.378;2023-04-24T09:16:47;13.00;99.90
48488;DHT22;34289;48.572;13.378;2023-04-24T09:19:13;13.10;99.90
48488;DHT22;34289;48.572;13.378;2023-04-24T09:21:39;13.20;99.90
48488;DHT22;34289;48.572;13.378;2023-04-24T09:24:14;13.30;99.90
48488;DHT22;34289;48.572;13.378;2023-04-24T09:26:40;13.70;99.90
48488;DHT22;34289;48.572;13.378;2023-04-24T09:29:06;13.40;99.90
48488;DHT22;34289;48.572;13.378;2023-04-24T09:31:31;12.00;99.90
48488;DHT22;34289;48.572;13.378;2023-04-24T09:34:03;13.10;99.90
48488;DHT22;34289;48.572;13.378;2023-04-24T09:36:33;13.10;99.90
48488;DHT22;34289;48.572;13.378;2023-04-24T09:39:03;13.10;99.90
48488;DHT22;34289;48.572;13.378;2023-04-24T09:41:30;13.00;99.90
48488;DHT22;34289;48.572;13.378;2023-04-24T09:44:10;13.10;99.90
48488;DHT22;34289;48.572;13.378;2023-04-24T09:46:36;13.20;99.90
48488;DHT22;34289;48.572;13.378;2023-04-24T09:49:14;13.20;99.90
48488;DHT22;34289;48.572;13.378;2023-04-24T09:51:40;13.10;99.90
48488;DHT22;34289;48.572;13.378;2023-04-24T09:54:20;13.30;99.90
48488;DHT22;34289;48.572;13.378;2023-04-24T09:56:50;13.40;99.90
48488;DHT22;34289;48.572;13.378;2023-04-24T09:59:18;13.70;99.90
48488;DHT22;34289;48.572;13.378;2023-04-24T10:01:45;13.80;99.90
48488;DHT22;34289;48.572;13.378;2023-04-24T10:04:22;13.70;99.90
48488;DHT22;34289;48.572;13.378;2023-04-24T10:06:50;13.70;99.90
48488;DHT22;34289;48.572;13.378;2023-04-24T10:09:17;13.60;99.90
48488;DHT22;34289;48.572;13.378;2023-04-24T10:11:46;13.40;99.90
48488;DHT22;34289;48.572;13.378;2023-04-24T10:14:25;13.30;99.90
48488;DHT22;34289;48.572;13.378;2023-04-24T10:16:55;12.90;99.90
48488;DHT22;34289;48.572;13.378;2023-04-24T10:19:25;12.80;99.90
48488;DHT22;34289;48.572;13.378;2023-04-24T10:21:51;12.90;99.90
48488;DHT22;34289;48.572;13.378;2023-04-24T10:24:18;12.60;99.90
48488;DHT22;34289;48.572;13.378;2023-04-24T10:26:46;12.80;99.90
48488;DHT22;34289;48.572;13.378;2023-04-24T10:29:15;13.40;99.90
48488;DHT22;34289;48.572;13.378;2023-04-24T10:31:40;13.20;99.90
48488;DHT22;34289;48.572;13.378;2023-04-24T10:34:08;13.40;99.90
48488;DHT22;34289;48.572;13.378;2023-04-24T10:36:35;13.60;99.90
48488;DHT22;34289;48.572;13.378;2023-04-24T10:39:04;13.70;99.90
48488;DHT22;34289;48.572;13.378;2023-04-24T10:41:31;13.80;99.90
48488;DHT22;34289;48.572;13.378;2023-04-24T10:44:11;13.70;99.90
48488;DHT22;34289;48.572;13.378;2023-04-24T10:46:38;13.60;99.90
48488;DHT22;34289;48.572;13.378;2023-04-24T10:49:05;13.80;99.90
48488;DHT22;34289;48.572;13.378;2023-04-24T10:56:50;13.80;99.90
48488;DHT22;34289;48.572;13.378;2023-04-24T10:59:27;13.50;99.90
48488;DHT22;34289;48.572;13.378;2023-04-24T11:02:00;13.50;99.90
48488;DHT22;34289;48.572;13.378;2023-04-24T11:04:32;13.20;99.90
48488;DHT22;34289;48.572;13.378;2023-04-24T11:06:58;12.90;99.90
48488;DHT22;34289;48.572;13.378;2023-04-24T11:09:30;12.90;99.90
48488;DHT22;34289;48.572;13.378;2023-04-24T11:12:07;12.60;99.90
48488;DHT22;34289;48.572;13.378;2023-04-24T11:17:35;12.50;99.90
48488;DHT22;34289;48.572;13.378;2023-04-24T11:20:10;12.50;99.90
48488;DHT22;34289;48.572;13.378;2023-04-24T11:22:38;12.50;99.90
48488;DHT22;34289;48.572;13.378;2023-04-24T11:25:08;12.80;99.90
48488;DHT22;34289;48.572;13.378;2023-04-24T11:27:42;12.50;99.90
48488;DHT22;34289;48.572;13.378;2023-04-24T11:30:10;12.60;99.90
48488;DHT22;34289;48.572;13.378;2023-04-24T11:32:40;12.80;99.90
48488;DHT22;34289;48.572;13.378;2023-04-24T11:35:12;13.00;99.90
48488;DHT22;34289;48.572;13.378;2023-04-24T11:37:40;13.00;99.90
48488;DHT22;34289;48.572;13.378;2023-04-24T11:40:08;13.00;99.90
48488;DHT22;34289;48.572;13.378;2023-04-24T11:42:35;13.10;99.90
48488;DHT22;34289;48.572;13.378;2023-04-24T11:45:02;13.20;99.90
48488;DHT22;34289;48.572;13.378;2023-04-24T11:47:32;13.30;99.90
48488;DHT22;34289;48.572;13.378;2023-04-24T11:50:01;13.40;99.90
48488;DHT22;34289;48.572;13.378;2023-04-24T11:52:28;13.60;99.90
48488;DHT22;34289;48.572;13.378;2023-04-24T11:54:54;13.90;99.90
48488;DHT22;34289;48.572;13.378;2023-04-24T11:57:20;13.80;99.90
48488;DHT22;34289;48.572;13.378;2023-04-24T11:59:47;13.90;99.90
48488;DHT22;34289;48.572;13.378;2023-04-24T12:02:25;14.00;99.90
48488;DHT22;34289;48.572;13.378;2023-04-24T12:04:52;14.20;99.90
48488;DHT22;34289;48.572;13.378;2023-04-24T12:07:17;14.40;99.90
48488;DHT22;34289;48.572;13.378;2023-04-24T12:09:44;14.50;99.90
48488;DHT22;34289;48.572;13.378;2023-04-24T12:12:12;14.70;99.90
48488;DHT22;34289;48.572;13.378;2023-04-24T12:14:49;14.80;99.90
48488;DHT22;34289;48.572;13.378;2023-04-24T12:17:16;14.80;99.90
48488;DHT22;34289;48.572;13.378;2023-04-24T12:19:47;14.70;99.90
48488;DHT22;34289;48.572;13.378;2023-04-24T12:22:13;14.50;99.90
48488;DHT22;34289;48.572;13.378;2023-04-24T12:25:02;14.40;99.90
48488;DHT22;34289;48.572;13.378;2023-04-24T12:27:32;14.60;99.90
48488;DHT22;34289;48.572;13.378;2023-04-24T12:30:03;15.10;99.90
48488;DHT22;34289;48.572;13.378;2023-04-24T12:32:29;15.50;99.90
48488;DHT22;34289;48.572;13.378;2023-04-24T12:34:55;15.50;99.90
48488;DHT22;34289;48.572;13.378;2023-04-24T12:37:26;15.70;99.90
48488;DHT22;34289;48.572;13.378;2023-04-24T12:40:05;15.60;99.90
48488;DHT22;34289;48.572;13.378;2023-04-24T12:42:32;15.60;99.90
48488;DHT22;34289;48.572;13.378;2023-04-24T12:45:00;15.70;99.90
48488;DHT22;34289;48.572;13.378;2023-04-24T12:47:27;15.70;99.90
48488;DHT22;34289;48.572;13.378;2023-04-24T12:49:54;15.70;99.90
48488;DHT22;34289;48.572;13.378;2023-04-24T12:52:21;15.70;99.90
48488;DHT22;34289;48.572;13.378;2023-04-24T12:54:47;15.60;99.90
48488;DHT22;34289;48.572;13.378;2023-04-24T12:57:13;15.40;99.90
48488;DHT22;34289;48.572;13.378;2023-04-24T12:59:39;15.50;99.90
48488;DHT22;34289;48.572;13.378;2023-04-24T13:02:05;15.50;99.90
48488;DHT22;34289;48.572;13.378;2023-04-24T13:04:31;15.50;99.90
48488;DHT22;34289;48.572;13.378;2023-04-24T13:06:57;15.50;99.90
48488;DHT22;34289;48.572;13.378;2023-04-24T13:09:23;15.40;99.90
48488;DHT22;34289;48.572;13.378;2023-04-24T13:11:49;15.30;99.90
48488;DHT22;34289;48.572;13.378;2023-04-24T13:14:15;15.30;99.90
48488;DHT22;34289;48.572;13.378;2023-04-24T13:16:41;14.90;99.90
48488;DHT22;34289;48.572;13.378;2023-04-24T13:19:06;14.70;99.90
48488;DHT22;34289;48.572;13.378;2023-04-24T13:21:32;14.60;99.90
48488;DHT22;34289;48.572;13.378;2023-04-24T13:23:58;14.30;99.90
48488;DHT22;34289;48.572;13.378;2023-04-24T13:26:25;14.00;99.90
48488;DHT22;34289;48.572;13.378;2023-04-24T13:28:50;13.60;99.90
48488;DHT22;34289;48.572;13.378;2023-04-24T13:31:16;13.40;99.90
48488;DHT22;34289;48.572;13.378;2023-04-24T13:33:42;13.20;99.90
48488;DHT22;34289;48.572;13.378;2023-04-24T13:36:08;12.90;99.90
48488;DHT22;34289;48.572;13.378;2023-04-24T13:38:34;12.90;99.90
48488;DHT22;34289;48.572;13.378;2023-04-24T13:41:00;12.90;99.90
48488;DHT22;34289;48.572;13.378;2023-04-24T13:43:26;12.90;99.90
48488;DHT22;34289;48.572;13.378;2023-04-24T13:45:52;12.90;99.90
48488;DHT22;34289;48.572;13.378;2023-04-24T13:48:18;12.90;99.90
48488;DHT22;34289;48.572;13.378;2023-04-24T13:50:43;12.90;99.90
48488;DHT22;34289;48.572;13.378;2023-04-24T13:53:10;12.90;99.90
48488;DHT22;34289;48.572;13.378;2023-04-24T13:55:36;12.90;99.90
48488;DHT22;34289;48.572;13.378;2023-04-24T13:58:02;12.80;99.90
48488;DHT22;34289;48.572;13.378;2023-04-24T14:00:28;13.00;99.90
48488;DHT22;34289;48.572;13.378;2023-04-24T14:02:53;13.20;99.90
48488;DHT22;34289;48.572;13.378;2023-04-24T14:05:19;13.30;99.90
48488;DHT22;34289;48.572;13.378;2023-04-24T14:07:46;13.40;99.90
48488;DHT22;34289;48.572;13.378;2023-04-24T14:10:11;13.30;99.90
48488;DHT22;34289;48.572;13.378;2023-04-24T14:12:37;13.40;99.90
48488;DHT22;34289;48.572;13.378;2023-04-24T14:15:03;13.50;99.90
48488;DHT22;34289;48.572;13.378;2023-04-24T14:17:30;13.50;99.90
48488;DHT22;34289;48.572;13.378;2023-04-24T14:19:56;13.70;99.90
48488;DHT22;34289;48.572;13.378;2023-04-24T14:22:22;13.70;99.90
48488;DHT22;34289;48.572;13.378;2023-04-24T14:24:48;13.70;99.90
48488;DHT22;34289;48.572;13.378;2023-04-24T14:27:14;13.70;99.90
48488;DHT22;34289;48.572;13.378;2023-04-24T14:29:39;13.80;99.90
48488;DHT22;34289;48.572;13.378;2023-04-24T14:32:05;13.80;99.90
48488;DHT22;34289;48.572;13.378;2023-04-24T14:34:31;13.70;99.90
48488;DHT22;34289;48.572;13.378;2023-04-24T14:36:57;13.80;99.90
48488;DHT22;34289;48.572;13.378;2023-04-24T14:39:24;13.80;99.90
48488;DHT22;34289;48.572;13.378;2023-04-24T14:41:49;13.90;99.90
48488;DHT22;34289;48.572;13.378;2023-04-24T14:44:15;14.00;99.90
48488;DHT22;34289;48.572;13.378;2023-04-24T14:46:41;14.30;99.90
48488;DHT22;34289;48.572;13.378;2023-04-24T14:49:08;14.60;99.90
48488;DHT22;34289;48.572;13.378;2023-04-24T14:51:37;14.60;99.90
48488;DHT22;34289;48.572;13.378;2023-04-24T14:54:03;14.80;99.90
48488;DHT22;34289;48.572;13.378;2023-04-24T14:56:29;14.90;99.90
48488;DHT22;34289;48.572;13.378;2023-04-24T14:58:55;15.00;99.90
48488;DHT22;34289;48.572;13.378;2023-04-24T15:01:21;14.90;99.90
48488;DHT22;34289;48.572;13.378;2023-04-24T15:03:47;15.00;99.90
48488;DHT22;34289;48.572;13.378;2023-04-24T15:06:12;14.90;99.90
48488;DHT22;34289;48.572;13.378;2023-04-24T15:08:38;14.90;99.90
48488;DHT22;34289;48.572;13.378;2023-04-24T15:11:04;14.90;99.90
48488;DHT22;34289;48.572;13.378;2023-04-24T15:13:29;15.00;99.90
48488;DHT22;34289;48.572;13.378;2023-04-24T15:15:55;15.10;99.90
48488;DHT22;34289;48.572;13.378;2023-04-24T15:18:21;15.20;99.90
48488;DHT22;34289;48.572;13.378;2023-04-24T15:20:46;15.40;99.90